Time;durP1;ratioP1;P1;durP2;ratioP2;P2;SDS_P1;SDS_P2;PMS_P1;PMS_P2;Temp;Humidity;BMP_temperature;BMP_pressure;BME280_temperature;BME280_humidity;BME280_pressure;Samples;Min_cycle;Max_cycle;Signal;HPM_P1;HPM_P2
2022/12/29 00:01:01;;;;;;;13.77;3.10;;;11.40;69.60;;;;;;5042746;28;20117;-79
2022/12/29 00:03:46;;;;;;;12.85;2.30;;;11.40;69.60;;;;;;5039309;28;20044;-79
2022/12/29 00:06:31;;;;;;;11.13;2.67;;;11.40;69.60;;;;;;5045076;28;20040;-80
2022/12/29 00:09:16;;;;;;;15.23;3.88;;;11.40;69.60;;;;;;5033043;28;20149;-80
2022/12/29 00:12:03;;;;;;;13.30;3.30;;;11.40;69.60;;;;;;5048869;28;20051;-79
2022/12/29 00:17:50;;;;;;;12.88;3.40;;;11.40;69.90;;;;;;5046581;28;20098;-80
2022/12/29 00:35:56;;;;;;;8.73;2.80;;;11.30;69.40;;;;;;5040116;28;20480;-79
2022/12/29 00:44:54;;;;;;;12.27;3.30;;;11.30;69.50;;;;;;5045642;28;20078;-79
2022/12/29 00:47:38;;;;;;;13.15;3.20;;;11.30;69.50;;;;;;5041554;28;20492;-79
2022/12/29 00:50:23;;;;;;;15.15;2.78;;;11.30;69.50;;;;;;5042372;28;20117;-79
2022/12/29 00:53:08;;;;;;;9.15;3.38;;;11.30;69.50;;;;;;5039238;28;20106;-80
2022/12/29 00:55:52;;;;;;;11.60;3.00;;;11.30;69.50;;;;;;5044902;28;20068;-79
2022/12/29 00:58:37;;;;;;;11.00;3.35;;;11.30;69.50;;;;;;5045251;28;20411;-78
2022/12/29 01:01:22;;;;;;;18.88;3.75;;;11.30;69.40;;;;;;5053229;28;20044;-79
2022/12/29 01:04:07;;;;;;;12.20;3.42;;;11.30;69.40;;;;;;5045466;28;20119;-79
2022/12/29 01:06:51;;;;;;;18.02;4.65;;;11.30;69.40;;;;;;5044694;28;20167;-78
2022/12/29 01:12:44;;;;;;;15.98;3.38;;;11.30;69.40;;;;;;5046122;28;20404;-78
2022/12/29 01:15:29;;;;;;;13.90;3.17;;;11.30;69.40;;;;;;5044332;28;20051;-78
2022/12/29 01:18:13;;;;;;;15.55;3.65;;;11.30;69.40;;;;;;5046369;28;20055;-78
2022/12/29 01:21:03;;;;;;;13.52;3.75;;;11.30;69.40;;;;;;5041835;28;20403;-80
2022/12/29 01:23:48;;;;;;;16.23;5.35;;;11.20;69.20;;;;;;5049259;28;20044;-78
2022/12/29 01:26:33;;;;;;;12.48;3.88;;;11.30;69.40;;;;;;5047491;28;20899;-78
2022/12/29 01:29:17;;;;;;;16.85;3.72;;;11.30;69.40;;;;;;5036715;28;20404;-78
2022/12/29 01:32:03;;;;;;;15.40;5.15;;;11.30;69.30;;;;;;5047394;28;20044;-78
2022/12/29 01:34:48;;;;;;;16.63;4.55;;;11.20;69.20;;;;;;5047338;28;20093;-77
2022/12/29 01:37:32;;;;;;;13.23;3.60;;;11.30;69.40;;;;;;5043361;28;20195;-77
2022/12/29 01:40:17;;;;;;;11.00;2.85;;;11.30;69.40;;;;;;5047608;28;20578;-78
2022/12/29 01:43:04;;;;;;;13.30;3.63;;;11.30;69.30;;;;;;5039791;28;20103;-77
2022/12/29 01:45:51;;;;;;;11.70;3.35;;;11.20;69.20;;;;;;5046488;28;20040;-78
2022/12/29 01:48:36;;;;;;;11.90;3.25;;;11.20;69.20;;;;;;5044694;28;20035;-77
2022/12/29 01:51:23;;;;;;;12.55;2.90;;;11.20;69.10;;;;;;5046739;28;20060;-78
2022/12/29 01:54:24;;;;;;;13.85;3.92;;;11.30;69.30;;;;;;5040794;28;20075;-77
2022/12/29 01:57:12;;;;;;;12.57;2.85;;;11.20;69.10;;;;;;5040272;28;20055;-78
2022/12/29 02:00:07;;;;;;;12.57;3.53;;;11.30;69.30;;;;;;5044906;28;20135;-78
2022/12/29 02:02:57;;;;;;;12.60;4.10;;;11.20;69.00;;;;;;5046012;28;20048;-78
2022/12/29 02:06:06;;;;;;;13.02;2.90;;;11.30;69.20;;;;;;5037829;28;20060;-78
2022/12/29 02:08:54;;;;;;;14.05;3.13;;;11.30;69.20;;;;;;5044697;28;20090;-78
2022/12/29 02:11:40;;;;;;;14.00;4.18;;;11.30;69.20;;;;;;5048837;28;20098;-79
2022/12/29 02:14:25;;;;;;;13.13;3.63;;;11.20;69.00;;;;;;5034321;28;20049;-79
2022/12/29 02:17:28;;;;;;;9.75;3.03;;;11.30;69.20;;;;;;5036842;28;20048;-78
2022/12/29 02:20:32;;;;;;;12.05;4.03;;;11.20;69.00;;;;;;5044740;28;20125;-79
2022/12/29 02:23:44;;;;;;;10.90;4.45;;;11.30;69.20;;;;;;5048370;28;20091;-79
2022/12/29 02:27:06;;;;;;;9.50;3.10;;;11.20;69.00;;;;;;5046231;28;20116;-79
2022/12/29 02:30:09;;;;;;;12.32;3.28;;;11.30;69.20;;;;;;5042029;28;20044;-80
2022/12/29 02:33:19;;;;;;;12.35;2.97;;;11.30;69.10;;;;;;5037477;28;20592;-80
2022/12/29 02:36:11;;;;;;;12.13;2.80;;;11.30;69.10;;;;;;5038027;28;20552;-80
2022/12/29 02:39:31;;;;;;;11.75;2.17;;;11.30;69.10;;;;;;5036568;28;20107;-80
2022/12/29 02:42:42;;;;;;;8.52;2.28;;;11.30;69.10;;;;;;5033761;28;20120;-79
2022/12/29 02:45:53;;;;;;;9.68;3.22;;;11.30;69.10;;;;;;5043333;28;20044;-80
2022/12/29 02:48:47;;;;;;;12.40;2.40;;;11.30;69.20;;;;;;5037395;28;20292;-80
2022/12/29 02:51:41;;;;;;;9.30;2.60;;;11.30;69.20;;;;;;5049419;28;20079;-78
2022/12/29 02:54:42;;;;;;;7.70;2.13;;;11.30;69.20;;;;;;5051423;28;20599;-79
2022/12/29 02:57:33;;;;;;;10.55;3.15;;;11.30;69.20;;;;;;5042388;28;20044;-79
2022/12/29 03:00:19;;;;;;;13.68;3.38;;;11.30;69.20;;;;;;5055770;28;20051;-78
2022/12/29 03:03:12;;;;;;;12.10;2.60;;;11.30;69.30;;;;;;5051155;28;20570;-78
2022/12/29 03:06:21;;;;;;;8.85;2.03;;;11.30;69.40;;;;;;5044262;28;20124;-79
2022/12/29 03:09:20;;;;;;;10.70;2.53;;;11.30;69.40;;;;;;5050441;28;20435;-78
2022/12/29 03:12:19;;;;;;;7.70;2.58;;;11.30;69.50;;;;;;5051409;28;20515;-79
2022/12/29 03:18:29;;;;;;;11.15;3.05;;;11.30;69.60;;;;;;5051512;28;20056;-79
2022/12/29 03:24:43;;;;;;;11.95;2.70;;;11.30;69.70;;;;;;5050517;28;20179;-80
2022/12/29 03:27:33;;;;;;;11.27;3.08;;;11.20;69.60;;;;;;5050803;28;20044;-79
2022/12/29 03:30:18;;;;;;;16.25;3.17;;;11.20;69.70;;;;;;5039662;28;20075;-78
2022/12/29 03:33:07;;;;;;;15.70;2.85;;;11.20;69.70;;;;;;5050577;28;20031;-79
2022/12/29 03:35:57;;;;;;;17.05;6.18;;;11.20;69.80;;;;;;5049355;28;20071;-79
2022/12/29 03:38:57;;;;;;;15.80;3.65;;;11.20;69.90;;;;;;5049202;28;20495;-80
2022/12/29 03:41:44;;;;;;;12.90;3.72;;;11.20;70.00;;;;;;5045161;28;20036;-80
2022/12/29 03:44:36;;;;;;;13.45;2.20;;;11.10;69.80;;;;;;5044483;28;20396;-79
2022/12/29 03:47:22;;;;;;;15.43;3.65;;;11.10;69.90;;;;;;5035720;28;20090;-80
2022/12/29 03:50:08;;;;;;;10.63;2.70;;;11.10;69.90;;;;;;5047446;28;20076;-80
2022/12/29 03:52:57;;;;;;;13.40;3.83;;;11.10;70.00;;;;;;5049753;28;20090;-80
2022/12/29 03:55:41;;;;;;;15.65;2.97;;;11.10;70.10;;;;;;5049292;28;20112;-79
2022/12/29 03:58:27;;;;;;;13.02;2.67;;;11.00;70.00;;;;;;5045157;28;20055;-80
2022/12/29 04:01:18;;;;;;;12.02;2.78;;;11.00;70.00;;;;;;5045699;28;20511;-79
2022/12/29 04:04:03;;;;;;;9.68;3.20;;;11.00;70.10;;;;;;5049966;28;20487;-78
2022/12/29 04:06:49;;;;;;;10.55;2.20;;;10.90;69.90;;;;;;5035778;28;20094;-79
2022/12/29 04:09:34;;;;;;;10.07;2.63;;;11.00;70.20;;;;;;5047851;28;20541;-78
2022/12/29 04:12:19;;;;;;;11.13;3.88;;;10.90;70.00;;;;;;5049391;28;20043;-79
2022/12/29 04:15:05;;;;;;;10.85;2.70;;;10.90;70.10;;;;;;5044824;28;20120;-78
2022/12/29 04:17:51;;;;;;;8.98;2.25;;;10.90;70.10;;;;;;5050363;28;20400;-79
2022/12/29 04:23:39;;;;;;;6.70;3.00;;;10.80;70.00;;;;;;5049725;28;20461;-79
2022/12/29 04:26:25;;;;;;;9.57;2.80;;;10.80;70.00;;;;;;5049322;28;20043;-78
2022/12/29 04:29:30;;;;;;;6.50;1.70;;;10.70;69.90;;;;;;5054244;28;20095;-79
2022/12/29 04:32:52;;;;;;;9.40;3.00;;;10.80;70.20;;;;;;5047580;28;20036;-78
2022/12/29 04:35:37;;;;;;;11.38;2.70;;;10.70;70.00;;;;;;5044122;28;20502;-80
2022/12/29 04:38:23;;;;;;;6.47;2.58;;;10.60;69.90;;;;;;5049810;28;20156;-79
2022/12/29 04:41:09;;;;;;;7.13;1.77;;;10.60;70.00;;;;;;5047198;28;20623;-79
2022/12/29 04:43:56;;;;;;;9.88;2.03;;;10.60;70.00;;;;;;5048412;28;20127;-79
2022/12/29 04:47:09;;;;;;;7.97;3.15;;;10.60;70.10;;;;;;5051985;28;20136;-79
2022/12/29 04:50:13;;;;;;;5.88;1.67;;;10.60;70.20;;;;;;5045835;28;20079;-78
2022/12/29 04:53:11;;;;;;;8.05;1.75;;;10.60;70.20;;;;;;5048474;28;20056;-78
2022/12/29 04:55:56;;;;;;;7.05;2.15;;;10.50;70.00;;;;;;5053971;28;20036;-78
2022/12/29 04:58:41;;;;;;;7.30;2.33;;;10.50;70.10;;;;;;5044502;28;20676;-78
2022/12/29 05:01:25;;;;;;;7.18;1.65;;;10.50;70.00;;;;;;5051292;28;20076;-80
2022/12/29 05:04:10;;;;;;;5.88;1.75;;;10.50;70.10;;;;;;5048426;28;20121;-80
2022/12/29 05:06:56;;;;;;;9.80;2.33;;;10.50;70.10;;;;;;5050753;28;20052;-79
2022/12/29 05:09:40;;;;;;;8.13;1.98;;;10.50;70.60;;;;;;5049657;28;20049;-80
2022/12/29 05:12:25;;;;;;;7.72;1.92;;;10.50;70.10;;;;;;5039775;28;20060;-80
2022/12/29 05:15:16;;;;;;;7.28;1.88;;;10.50;70.10;;;;;;5045270;28;20502;-80
2022/12/29 05:18:01;;;;;;;11.98;2.30;;;10.50;70.20;;;;;;5051087;28;20099;-80
2022/12/29 05:20:47;;;;;;;8.85;1.70;;;10.50;70.20;;;;;;5047886;28;20095;-79
2022/12/29 05:23:31;;;;;;;18.33;2.33;;;10.50;70.20;;;;;;5040930;28;20056;-80
2022/12/29 05:26:23;;;;;;;5.90;2.03;;;10.40;70.10;;;;;;5043227;28;20040;-80
2022/12/29 05:29:30;;;;;;;9.95;3.10;;;10.40;70.10;;;;;;5056598;28;20039;-79
2022/12/29 05:32:18;;;;;;;6.72;1.98;;;10.40;70.10;;;;;;5042626;28;20083;-80
2022/12/29 05:35:03;;;;;;;7.72;2.92;;;10.40;70.20;;;;;;5041842;28;20097;-80
2022/12/29 05:37:50;;;;;;;7.07;1.60;;;10.30;70.00;;;;;;5039992;28;20128;-80
2022/12/29 05:40:35;;;;;;;5.35;1.60;;;10.30;70.10;;;;;;5050418;28;20052;-80
2022/12/29 05:43:24;;;;;;;5.32;1.70;;;10.30;70.10;;;;;;5032206;28;20040;-79
2022/12/29 05:46:32;;;;;;;4.50;1.40;;;10.30;70.10;;;;;;5039950;28;20132;-80
2022/12/29 05:49:28;;;;;;;7.28;2.00;;;10.20;70.00;;;;;;5042224;28;21845;-79
2022/12/29 05:52:32;;;;;;;7.63;1.92;;;10.20;70.00;;;;;;5043371;28;20056;-78
2022/12/29 05:55:16;;;;;;;14.68;2.45;;;10.20;70.00;;;;;;5035083;28;20129;-78
2022/12/29 05:58:03;;;;;;;6.45;2.33;;;10.20;70.10;;;;;;5037426;28;20059;-78
2022/12/29 06:00:47;;;;;;;7.90;3.08;;;10.20;70.10;;;;;;5043798;28;20043;-78
2022/12/29 06:03:32;;;;;;;11.65;2.22;;;10.20;70.20;;;;;;5048449;28;20190;-78
2022/12/29 06:06:17;;;;;;;11.18;2.22;;;10.10;70.00;;;;;;5047404;28;20520;-78
2022/12/29 06:09:02;;;;;;;12.82;2.08;;;10.10;70.00;;;;;;5045203;28;20083;-79
2022/12/29 06:11:47;;;;;;;11.20;2.45;;;10.10;70.00;;;;;;5044824;28;20048;-78
2022/12/29 06:14:31;;;;;;;11.27;4.15;;;10.10;70.10;;;;;;5029194;28;20259;-77
2022/12/29 06:17:16;;;;;;;9.93;2.45;;;10.00;69.90;;;;;;5029338;28;20048;-78
2022/12/29 06:20:02;;;;;;;12.07;2.22;;;10.00;70.00;;;;;;5042061;28;20167;-78
2022/12/29 06:22:47;;;;;;;7.63;2.00;;;10.00;70.00;;;;;;5047903;28;20043;-78
2022/12/29 06:25:33;;;;;;;7.75;2.20;;;10.00;70.00;;;;;;5041248;28;20056;-79
2022/12/29 06:28:18;;;;;;;14.15;2.42;;;10.00;70.10;;;;;;5045808;28;20036;-80
2022/12/29 06:31:03;;;;;;;9.02;2.03;;;10.00;70.10;;;;;;5042845;28;20711;-79
2022/12/29 06:33:48;;;;;;;7.05;1.98;;;10.00;70.10;;;;;;5040274;28;20099;-78
2022/12/29 06:36:32;;;;;;;10.88;3.08;;;10.00;70.10;;;;;;5041440;28;20059;-78
2022/12/29 06:39:17;;;;;;;6.72;2.10;;;10.00;70.10;;;;;;5039930;28;20103;-79
2022/12/29 06:42:09;;;;;;;10.63;1.73;;;10.00;70.10;;;;;;5044116;28;20615;-79
2022/12/29 06:45:07;;;;;;;6.53;2.38;;;10.10;70.20;;;;;;5039825;28;20048;-79
2022/12/29 06:47:51;;;;;;;11.02;1.70;;;10.10;70.20;;;;;;5049901;28;20036;-77
2022/12/29 06:50:36;;;;;;;9.25;2.00;;;10.10;70.20;;;;;;5054358;28;20082;-86
2022/12/29 06:53:20;;;;;;;12.90;2.00;;;10.10;70.20;;;;;;5039750;28;20052;-82
2022/12/29 06:56:05;;;;;;;7.20;1.63;;;10.10;70.20;;;;;;5054236;28;20625;-89
2022/12/29 06:58:50;;;;;;;10.07;2.67;;;10.20;70.40;;;;;;5052529;28;20076;-85
2022/12/29 07:01:35;;;;;;;11.73;2.78;;;10.20;70.40;;;;;;5047415;28;20462;-85
2022/12/29 07:04:20;;;;;;;11.52;2.30;;;10.20;70.30;;;;;;5044433;28;20376;-79
2022/12/29 07:07:04;;;;;;;9.50;1.67;;;10.20;70.40;;;;;;5051462;28;20091;-79
2022/12/29 07:09:49;;;;;;;11.13;2.42;;;10.20;70.40;;;;;;5044561;28;20113;-86
2022/12/29 07:12:33;;;;;;;6.10;1.77;;;10.20;70.30;;;;;;5030758;28;20039;-78
2022/12/29 07:15:19;;;;;;;11.07;1.67;;;10.20;70.40;;;;;;5044576;28;20035;-84
2022/12/29 07:18:04;;;;;;;11.85;3.90;;;10.20;70.40;;;;;;5049149;28;20056;-83
2022/12/29 07:20:49;;;;;;;10.38;2.17;;;10.20;70.40;;;;;;5046447;28;20106;-83
2022/12/29 07:23:34;;;;;;;11.07;1.77;;;10.20;70.50;;;;;;5048286;28;20040;-82
2022/12/29 07:26:21;;;;;;;7.95;2.05;;;10.20;70.50;;;;;;5047150;28;20392;-85
2022/12/29 07:29:05;;;;;;;7.50;2.08;;;10.20;70.60;;;;;;5047582;28;20063;-82
2022/12/29 07:31:49;;;;;;;11.75;1.52;;;10.20;70.50;;;;;;5052852;28;20031;-85
2022/12/29 07:34:34;;;;;;;9.30;2.40;;;10.20;70.60;;;;;;5048123;28;20043;-82
2022/12/29 07:37:19;;;;;;;11.48;2.03;;;10.20;70.60;;;;;;5051599;28;20044;-81
2022/12/29 07:40:04;;;;;;;11.23;2.13;;;10.20;70.60;;;;;;5054382;28;20118;-84
2022/12/29 07:42:48;;;;;;;13.30;2.47;;;10.20;70.60;;;;;;5052226;28;20367;-84
2022/12/29 07:45:34;;;;;;;8.52;1.85;;;10.20;70.70;;;;;;5053726;28;20122;-83
2022/12/29 07:48:27;;;;;;;9.35;1.92;;;10.20;70.70;;;;;;5042998;28;20056;-85
2022/12/29 07:51:12;;;;;;;12.50;2.40;;;10.20;71.00;;;;;;5047614;28;20575;-75
2022/12/29 07:53:56;;;;;;;8.73;1.50;;;10.30;71.70;;;;;;5049775;28;20397;-78
2022/12/29 07:56:41;;;;;;;10.88;2.67;;;10.50;72.40;;;;;;5041353;28;20140;-78
2022/12/29 07:59:26;;;;;;;13.68;3.58;;;10.70;72.80;;;;;;5036973;28;20056;-80
2022/12/29 08:02:11;;;;;;;8.80;1.63;;;10.90;73.20;;;;;;5046725;28;20091;-76
2022/12/29 08:04:57;;;;;;;14.13;4.05;;;11.20;73.60;;;;;;5046510;28;20031;-77
2022/12/29 08:07:46;;;;;;;10.82;2.10;;;11.40;73.80;;;;;;5044618;28;20043;-81
2022/12/29 08:10:30;;;;;;;9.80;2.95;;;11.60;74.10;;;;;;5051976;28;20535;-79
2022/12/29 08:13:15;;;;;;;8.38;2.10;;;11.80;74.10;;;;;;5040000;28;20055;-79
2022/12/29 08:15:59;;;;;;;8.23;2.42;;;12.00;74.30;;;;;;5049879;28;20424;-78
2022/12/29 08:18:44;;;;;;;7.80;1.63;;;12.20;74.50;;;;;;5048147;28;20048;-80
2022/12/29 08:21:29;;;;;;;7.68;1.65;;;12.30;74.40;;;;;;5047817;28;20691;-79
2022/12/29 08:24:13;;;;;;;6.93;1.58;;;12.40;74.50;;;;;;5042893;28;20126;-80
2022/12/29 08:26:59;;;;;;;6.97;2.05;;;12.50;74.50;;;;;;5049423;28;20553;-80
2022/12/29 08:29:44;;;;;;;6.97;1.95;;;12.60;74.60;;;;;;5039239;28;20471;-80
2022/12/29 08:32:29;;;;;;;5.53;1.52;;;12.60;74.40;;;;;;5043030;28;20039;-80
2022/12/29 08:35:13;;;;;;;9.02;1.90;;;12.70;74.50;;;;;;5042075;28;20095;-79
2022/12/29 08:37:58;;;;;;;8.45;1.55;;;12.80;74.60;;;;;;5026686;28;20092;-80
2022/12/29 08:40:42;;;;;;;7.97;1.90;;;12.90;74.70;;;;;;5037382;28;20175;-80
2022/12/29 08:43:28;;;;;;;6.63;1.55;;;12.90;74.60;;;;;;5039478;28;20031;-81
2022/12/29 08:46:12;;;;;;;7.68;1.50;;;13.00;74.60;;;;;;5043743;28;20692;-80
2022/12/29 08:48:57;;;;;;;7.75;2.45;;;13.10;74.70;;;;;;5042825;28;20087;-79
2022/12/29 08:51:42;;;;;;;7.65;1.92;;;13.10;74.50;;;;;;5046361;28;20059;-80
2022/12/29 08:54:27;;;;;;;9.80;2.88;;;13.20;74.60;;;;;;5036080;28;20138;-79
2022/12/29 08:57:11;;;;;;;8.45;2.65;;;13.30;74.70;;;;;;5026850;28;20119;-78
2022/12/29 09:00:08;;;;;;;10.60;1.90;;;13.30;74.60;;;;;;5039286;28;20060;-79
2022/12/29 09:02:52;;;;;;;6.72;1.70;;;13.40;74.60;;;;;;5029008;28;20063;-75
2022/12/29 09:05:37;;;;;;;9.13;2.45;;;13.40;74.50;;;;;;5041694;28;20087;-77
2022/12/29 09:08:23;;;;;;;11.43;2.63;;;13.50;74.50;;;;;;5036981;28;20170;-78
2022/12/29 09:11:09;;;;;;;14.93;3.42;;;13.50;74.40;;;;;;5039107;28;20458;-77
2022/12/29 09:13:53;;;;;;;10.20;2.35;;;13.60;74.50;;;;;;5037530;28;20102;-77
2022/12/29 09:16:38;;;;;;;11.85;3.00;;;13.60;74.30;;;;;;5041811;28;20043;-79
2022/12/29 09:19:22;;;;;;;11.02;2.60;;;13.70;74.80;;;;;;5044303;28;20068;-81
2022/12/29 09:22:07;;;;;;;7.97;2.17;;;13.70;74.20;;;;;;5046681;28;20040;-81
2022/12/29 09:24:52;;;;;;;9.13;2.13;;;13.70;74.20;;;;;;5044548;28;20047;-81
2022/12/29 09:27:37;;;;;;;13.20;3.45;;;13.70;74.00;;;;;;5046498;28;20101;-81
2022/12/29 09:30:23;;;;;;;9.05;2.60;;;13.80;74.10;;;;;;5037771;28;20113;-78
2022/12/29 09:33:07;;;;;;;10.73;2.10;;;13.80;74.00;;;;;;5025914;28;20068;-77
2022/12/29 09:35:55;;;;;;;12.45;4.95;;;13.80;74.40;;;;;;5037691;28;20064;-77
2022/12/29 09:38:40;;;;;;;9.82;2.25;;;13.80;73.80;;;;;;5040460;28;20052;-79
2022/12/29 09:41:35;;;;;;;8.68;2.97;;;13.80;73.70;;;;;;5037086;28;20130;-78
2022/12/29 09:44:22;;;;;;;7.50;1.95;;;13.90;73.70;;;;;;5038963;28;20060;-79
2022/12/29 09:47:13;;;;;;;8.18;1.95;;;13.80;73.20;;;;;;5011160;28;20064;-79
2022/12/29 09:50:03;;;;;;;11.90;2.15;;;13.80;73.00;;;;;;5004462;28;20036;-80
2022/12/29 09:53:05;;;;;;;8.90;2.28;;;13.80;72.90;;;;;;5001279;28;20048;-80
2022/12/29 09:55:55;;;;;;;13.25;3.53;;;13.60;72.40;;;;;;5003266;28;20520;-81
2022/12/29 09:58:49;;;;;;;6.55;2.50;;;13.50;72.30;;;;;;5003474;28;20064;-79
2022/12/29 10:01:46;;;;;;;8.10;2.03;;;13.40;72.10;;;;;;5011955;28;20064;-80
2022/12/29 10:04:32;;;;;;;9.70;1.85;;;13.30;71.90;;;;;;5001773;28;20070;-79
2022/12/29 10:07:45;;;;;;;6.90;1.70;;;13.20;71.90;;;;;;5010095;28;20071;-78
2022/12/29 10:10:41;;;;;;;7.53;2.10;;;13.10;71.60;;;;;;5003796;28;20033;-79
2022/12/29 10:13:42;;;;;;;8.65;2.10;;;13.10;71.70;;;;;;5008054;28;20421;-82
2022/12/29 10:16:32;;;;;;;6.50;1.83;;;13.00;71.40;;;;;;5025239;28;20053;-80
2022/12/29 10:19:37;;;;;;;5.15;1.23;;;13.00;71.40;;;;;;5012003;28;20518;-84
2022/12/29 10:22:46;;;;;;;7.57;1.17;;;13.00;71.30;;;;;;5016833;28;20053;-84
2022/12/29 10:25:38;;;;;;;6.13;1.35;;;13.00;71.10;;;;;;5012559;28;20491;-84
2022/12/29 10:28:47;;;;;;;9.20;2.00;;;12.90;71.00;;;;;;5011410;28;20150;-81
2022/12/29 10:31:41;;;;;;;3.75;2.00;;;12.90;71.00;;;;;;5019538;28;20398;-81
2022/12/29 10:34:33;;;;;;;7.47;1.70;;;12.90;71.20;;;;;;5010469;28;20056;-84
2022/12/29 10:37:17;;;;;;;8.20;1.73;;;12.90;71.40;;;;;;5025829;28;20048;-80
2022/12/29 10:40:15;;;;;;;7.95;2.08;;;13.00;71.60;;;;;;5006012;28;20057;-80
2022/12/29 10:43:01;;;;;;;10.98;2.72;;;13.10;71.60;;;;;;5004663;28;20029;-79
2022/12/29 10:45:47;;;;;;;7.97;1.63;;;13.20;71.70;;;;;;4999440;28;20045;-80
2022/12/29 10:48:34;;;;;;;8.25;1.70;;;13.30;71.70;;;;;;5007222;28;20080;-79
2022/12/29 10:51:27;;;;;;;10.95;2.70;;;13.30;71.50;;;;;;4998611;28;20124;-80
2022/12/29 10:54:25;;;;;;;8.43;2.63;;;13.40;71.60;;;;;;5004968;28;20478;-79
2022/12/29 10:57:19;;;;;;;6.78;1.98;;;13.40;71.60;;;;;;4999265;28;20038;-78
2022/12/29 11:00:16;;;;;;;7.70;1.67;;;13.50;71.70;;;;;;5005051;28;20080;-80
2022/12/29 11:03:25;;;;;;;6.15;1.95;;;13.50;71.60;;;;;;5010600;28;20438;-85
2022/12/29 11:06:23;;;;;;;12.52;2.38;;;13.60;71.50;;;;;;5008199;28;20095;-85
2022/12/29 11:09:32;;;;;;;10.27;2.35;;;13.60;70.80;;;;;;5005410;28;20124;-82
2022/12/29 11:12:21;;;;;;;8.75;2.28;;;13.50;70.40;;;;;;5001902;28;20188;-84
2022/12/29 11:15:07;;;;;;;5.15;1.58;;;13.50;70.40;;;;;;5000569;28;20045;-79
2022/12/29 11:17:57;;;;;;;6.57;1.75;;;13.40;70.10;;;;;;4999683;28;20103;-88
2022/12/29 11:20:42;;;;;;;7.40;2.28;;;13.40;69.90;;;;;;5005677;28;20045;-88
2022/12/29 11:23:31;;;;;;;8.18;1.95;;;13.30;69.70;;;;;;5008791;28;20068;-86
2022/12/29 11:26:22;;;;;;;7.43;2.10;;;13.20;69.60;;;;;;5006372;28;20044;-87
2022/12/29 11:29:16;;;;;;;5.45;1.67;;;13.20;69.50;;;;;;4999562;28;20101;-86
2022/12/29 11:32:11;;;;;;;13.73;2.35;;;13.20;69.80;;;;;;5006645;28;20072;-84
2022/12/29 11:34:58;;;;;;;17.60;4.78;;;13.30;70.20;;;;;;5007072;28;20113;-84
2022/12/29 11:37:42;;;;;;;7.47;2.33;;;13.50;70.40;;;;;;4999206;28;20076;-84
2022/12/29 11:40:28;;;;;;;8.55;3.33;;;13.70;70.40;;;;;;4993908;28;20542;-83
2022/12/29 11:43:34;;;;;;;7.85;2.10;;;13.90;70.20;;;;;;5006070;28;20121;-84
2022/12/29 11:46:34;;;;;;;4.95;2.00;;;14.10;70.00;;;;;;5011086;28;20391;-84
2022/12/29 11:49:22;;;;;;;6.95;2.28;;;14.10;69.60;;;;;;5003674;28;20495;-84
2022/12/29 11:52:09;;;;;;;8.27;1.92;;;14.10;69.50;;;;;;4971300;28;1138746;-83
2022/12/29 11:54:55;;;;;;;5.95;1.90;;;14.10;69.50;;;;;;5006325;28;20410;-84
2022/12/29 11:57:42;;;;;;;7.80;1.83;;;14.10;69.50;;;;;;5015783;28;20040;-82
2022/12/29 12:00:28;;;;;;;8.63;2.05;;;14.10;69.50;;;;;;5008442;28;20044;-79
2022/12/29 12:03:20;;;;;;;12.45;2.40;;;14.00;69.50;;;;;;5003990;28;20367;-79
2022/12/29 12:06:09;;;;;;;8.20;2.17;;;14.00;70.20;;;;;;5005708;28;20118;-79
2022/12/29 12:09:07;;;;;;;11.10;2.70;;;14.10;70.00;;;;;;5001269;28;20525;-82
2022/12/29 12:11:55;;;;;;;10.95;3.38;;;14.10;69.80;;;;;;5013684;28;20101;-81
2022/12/29 12:14:53;;;;;;;9.43;3.47;;;14.20;69.90;;;;;;5005571;28;20040;-79
2022/12/29 12:18:23;;;;;;;14.77;4.95;;;14.20;70.40;;;;;;5007696;28;20079;-79
2022/12/29 12:21:23;;;;;;;11.18;5.35;;;14.20;70.20;;;;;;5005716;28;20674;-79
2022/12/29 12:24:35;;;;;;;17.25;9.50;;;14.20;70.50;;;;;;5009583;28;20520;-80
2022/12/29 12:27:26;;;;;;;13.32;8.63;;;14.20;71.00;;;;;;5004237;28;20096;-83
2022/12/29 12:30:16;;;;;;;18.50;7.00;;;14.20;71.30;;;;;;5006590;28;20048;-89
2022/12/29 12:33:16;;;;;;;15.20;5.90;;;14.20;71.70;;;;;;5014922;28;20045;-94
2022/12/29 12:36:14;;;;;;;14.02;5.50;;;14.20;72.00;;;;;;4999611;28;20048;-89
2022/12/29 12:39:17;;;;;;;9.75;4.18;;;14.30;72.30;;;;;;5012010;28;20044;-86
2022/12/29 12:42:10;;;;;;;12.60;4.40;;;14.20;72.20;;;;;;4997981;28;20414;-83
2022/12/29 12:44:54;;;;;;;;;;;14.20;72.20;;;;;;5019722;28;20443;-87
2022/12/29 12:48:00;;;;;;;14.50;3.88;;;14.20;72.10;;;;;;4995226;28;20376;-84
2022/12/29 12:50:47;;;;;;;9.07;3.78;;;14.20;72.10;;;;;;4999177;28;20049;-80
2022/12/29 12:53:48;;;;;;;11.68;3.70;;;14.10;71.90;;;;;;5003348;28;20084;-81
2022/12/29 12:57:07;;;;;;;13.02;4.00;;;14.10;71.70;;;;;;5006155;28;20100;-82
2022/12/29 13:00:09;;;;;;;6.90;3.17;;;14.00;71.60;;;;;;4997709;28;20074;-86
2022/12/29 13:03:21;;;;;;;8.60;3.08;;;13.90;71.50;;;;;;4988957;28;20057;-82
2022/12/29 13:06:16;;;;;;;9.48;3.40;;;13.80;71.20;;;;;;5007158;28;20457;-81
2022/12/29 13:09:22;;;;;;;10.45;2.58;;;13.80;71.30;;;;;;5014466;28;20571;-87
2022/12/29 13:12:25;;;;;;;7.82;3.53;;;13.70;71.10;;;;;;5016159;28;20070;-81
2022/12/29 13:15:23;;;;;;;7.40;2.70;;;13.60;70.90;;;;;;5022311;28;20136;-79
2022/12/29 13:18:16;;;;;;;5.18;2.08;;;13.50;70.70;;;;;;5003919;28;20290;-82
2022/12/29 13:21:05;;;;;;;7.47;2.75;;;13.50;70.70;;;;;;5000733;28;20083;-81
2022/12/29 13:23:59;;;;;;;9.90;2.25;;;13.40;70.50;;;;;;5004224;28;20037;-80
2022/12/29 13:27:03;;;;;;;5.07;2.10;;;13.40;70.50;;;;;;5001392;28;20069;-82
2022/12/29 13:29:57;;;;;;;;;;;13.40;70.40;;;;;;5015318;28;20041;-80
2022/12/29 13:33:02;;;;;;;5.03;1.85;;;13.30;70.20;;;;;;5003168;28;20415;-85
2022/12/29 13:36:00;;;;;;;6.97;1.63;;;13.30;70.20;;;;;;5001065;28;20142;-83
2022/12/29 13:39:16;;;;;;;10.35;2.35;;;13.30;70.20;;;;;;5002770;28;20076;-87
2022/12/29 13:42:03;;;;;;;6.32;1.95;;;13.30;70.00;;;;;;5005323;28;20076;-83
2022/12/29 13:44:59;;;;;;;9.07;3.13;;;13.40;70.00;;;;;;5003678;28;20131;-82
2022/12/29 13:48:29;;;;;;;6.55;2.10;;;13.40;69.80;;;;;;4993607;28;20088;-81
2022/12/29 13:51:15;;;;;;;6.57;1.80;;;13.30;69.60;;;;;;4983110;28;20061;-80
2022/12/29 13:54:14;;;;;;;6.85;2.25;;;13.20;69.60;;;;;;5010089;28;20065;-79
2022/12/29 13:57:02;;;;;;;7.75;1.92;;;13.10;69.50;;;;;;5014644;28;20036;-78
2022/12/29 13:59:56;;;;;;;8.18;2.08;;;13.10;69.70;;;;;;5005662;28;20412;-77
2022/12/29 14:02:55;;;;;;;9.70;2.75;;;13.00;69.60;;;;;;5020654;28;20052;-80
2022/12/29 14:05:40;;;;;;;8.50;2.58;;;13.00;69.70;;;;;;5015483;28;20036;-80
2022/12/29 14:08:24;;;;;;;8.35;2.45;;;12.90;69.70;;;;;;5014952;28;20048;-81
2022/12/29 14:11:11;;;;;;;6.75;2.03;;;12.90;69.80;;;;;;5011429;28;20048;-81
2022/12/29 14:13:56;;;;;;;7.25;2.35;;;12.90;69.90;;;;;;4999348;28;20041;-81
2022/12/29 14:16:42;;;;;;;10.45;3.60;;;12.90;70.50;;;;;;5001512;28;20106;-81
2022/12/29 14:19:30;;;;;;;9.05;2.15;;;12.90;69.90;;;;;;5000423;28;20110;-82
2022/12/29 14:22:24;;;;;;;11.40;3.47;;;12.80;69.70;;;;;;4999916;28;20037;-83
2022/12/29 14:25:47;;;;;;;10.40;3.35;;;12.80;69.70;;;;;;5004679;28;20048;-83
2022/12/29 14:28:34;;;;;;;10.00;1.83;;;12.90;69.80;;;;;;5005329;28;20040;-85
2022/12/29 14:31:18;;;;;;;8.57;1.90;;;12.90;69.80;;;;;;5014131;28;20071;-85
2022/12/29 14:34:06;;;;;;;10.48;2.42;;;13.00;69.80;;;;;;5020088;28;20113;-86
2022/12/29 14:37:03;;;;;;;10.05;2.03;;;13.00;69.70;;;;;;5022000;28;20040;-84
2022/12/29 14:39:47;;;;;;;8.75;2.42;;;13.10;69.60;;;;;;5020823;28;20099;-83
2022/12/29 14:42:32;;;;;;;9.20;2.00;;;13.10;69.50;;;;;;5011396;28;20036;-87
2022/12/29 14:45:18;;;;;;;6.72;1.92;;;13.10;69.40;;;;;;5007653;28;20204;-87
2022/12/29 14:48:26;;;;;;;7.07;2.58;;;13.10;69.40;;;;;;5013253;28;20516;-88
2022/12/29 14:51:42;;;;;;;8.95;2.20;;;13.10;69.40;;;;;;5003314;28;20117;-88
2022/12/29 14:54:32;;;;;;;9.02;2.28;;;13.10;69.50;;;;;;5009137;28;20136;-89
2022/12/29 14:57:31;;;;;;;8.23;2.25;;;13.00;69.30;;;;;;4995511;28;20046;-87
2022/12/29 15:00:24;;;;;;;8.98;2.28;;;13.00;69.40;;;;;;5014705;28;20103;-83
2022/12/29 15:03:28;;;;;;;6.93;2.92;;;12.90;69.30;;;;;;5018424;28;20080;-87
2022/12/29 15:06:18;;;;;;;;;;;12.90;69.40;;;;;;5008454;28;20075;-90
2022/12/29 15:09:42;;;;;;;10.50;3.05;;;12.80;69.40;;;;;;5011248;28;19920;-90
2022/12/29 15:12:46;;;;;;;8.80;1.90;;;12.70;69.40;;;;;;5010374;28;20469;-89
2022/12/29 15:15:37;;;;;;;8.32;2.83;;;12.60;69.40;;;;;;5023915;28;20547;-87
2022/12/29 15:18:25;;;;;;;8.13;2.47;;;12.60;69.50;;;;;;5010554;28;20037;-85
2022/12/29 15:21:14;;;;;;;10.02;2.88;;;12.50;69.50;;;;;;5006360;28;20386;-86
2022/12/29 15:23:59;;;;;;;10.38;2.53;;;12.50;69.70;;;;;;5015381;28;20076;-86